Terminal Aerodrome Forecast
Issued by NWS

Home | Current Version | Previous Version | Graphics & Text | Print | Product List | Glossary Off
Versions: 1 2 3 4 5 6 7 8 9 10 11 12 13

000
FTUS43 KABR 010541
TAFATY
TAF
KATY 010541Z 0106/0206 24007KT P6SM SKC
     FM011000 VRB03KT P6SM SCT100
     FM011800 19008KT P6SM SCT050
     FM020000 21012KT P6SM SKC=

USA.gov is the U.S. government's official web portal to all federal, state and local government web resources and services.